Mammoth Lakes, California
Current Conditions -  °F | °C
As of 12:35 AM on Tuesday 21 Oct 2014 (Local Time) from KMMH Reporting Station
Clear Clear  
Wind Chill: 52°   Ceiling: Unl
Heat Index: 52°   Visibility: 10mi
Dew Point:   Wind: 28mph
Humidity: 18%   Direction: 230°SW
Pressure: 30.04"   Gusts: 38mph
Location:  37.65°N, 118.97°W
Report Text: KMMH 210735Z AUTO 23024G33KT 10SM CLR 11/M13 A3004 RMK AO1
Loading
Personal Weather Stations






























Interactive Weather Map
Tropical Storm Tracking
New forecast layout! Learn more

10-Day Weather Forecast

Advertisements
Track Severe Weather on mobile